sensor_id;sensor_type;location;lat;lon;timestamp;temperature;humidity
21662;DHT22;10992;48.170;8.596;2022-12-16T00:01:24;-2.30;99.90
21662;DHT22;10992;48.170;8.596;2022-12-16T00:03:52;-2.40;99.90
21662;DHT22;10992;48.170;8.596;2022-12-16T00:06:24;-2.40;99.90
21662;DHT22;10992;48.170;8.596;2022-12-16T00:08:51;-2.40;99.90
21662;DHT22;10992;48.170;8.596;2022-12-16T00:11:20;-2.30;99.90
21662;DHT22;10992;48.170;8.596;2022-12-16T00:13:48;-2.20;99.90
21662;DHT22;10992;48.170;8.596;2022-12-16T00:16:19;-2.30;99.90
21662;DHT22;10992;48.170;8.596;2022-12-16T00:18:47;-2.30;99.90
21662;DHT22;10992;48.170;8.596;2022-12-16T00:21:17;-2.30;99.90
21662;DHT22;10992;48.170;8.596;2022-12-16T00:23:44;-2.30;99.90
21662;DHT22;10992;48.170;8.596;2022-12-16T00:26:12;-2.30;99.90
21662;DHT22;10992;48.170;8.596;2022-12-16T00:28:40;-2.30;99.90
21662;DHT22;10992;48.170;8.596;2022-12-16T00:31:09;-2.30;99.90
21662;DHT22;10992;48.170;8.596;2022-12-16T00:33:36;-2.30;99.90
21662;DHT22;10992;48.170;8.596;2022-12-16T00:36:04;-2.30;99.90
21662;DHT22;10992;48.170;8.596;2022-12-16T00:38:31;-2.30;99.90
21662;DHT22;10992;48.170;8.596;2022-12-16T00:40:58;-2.40;99.90
21662;DHT22;10992;48.170;8.596;2022-12-16T00:43:24;-2.40;99.90
21662;DHT22;10992;48.170;8.596;2022-12-16T00:45:51;-2.30;99.90
21662;DHT22;10992;48.170;8.596;2022-12-16T00:48:19;-2.40;99.90
21662;DHT22;10992;48.170;8.596;2022-12-16T00:50:53;-2.40;99.90
21662;DHT22;10992;48.170;8.596;2022-12-16T00:53:22;-2.50;99.90
21662;DHT22;10992;48.170;8.596;2022-12-16T00:55:50;-2.60;99.90
21662;DHT22;10992;48.170;8.596;2022-12-16T00:58:19;-2.50;99.90
21662;DHT22;10992;48.170;8.596;2022-12-16T01:00:46;-2.50;99.90
21662;DHT22;10992;48.170;8.596;2022-12-16T01:03:13;-2.50;99.90
21662;DHT22;10992;48.170;8.596;2022-12-16T01:05:47;-2.60;99.90
21662;DHT22;10992;48.170;8.596;2022-12-16T01:08:15;-2.50;99.90
21662;DHT22;10992;48.170;8.596;2022-12-16T01:10:41;-2.70;99.90
21662;DHT22;10992;48.170;8.596;2022-12-16T01:13:08;-2.60;99.90
21662;DHT22;10992;48.170;8.596;2022-12-16T01:15:36;-2.60;99.90
21662;DHT22;10992;48.170;8.596;2022-12-16T01:18:04;-2.70;99.90
21662;DHT22;10992;48.170;8.596;2022-12-16T01:20:32;-2.70;99.90
21662;DHT22;10992;48.170;8.596;2022-12-16T01:22:59;-2.70;99.90
21662;DHT22;10992;48.170;8.596;2022-12-16T01:25:25;-2.60;99.90
21662;DHT22;10992;48.170;8.596;2022-12-16T01:27:52;-2.60;99.90
21662;DHT22;10992;48.170;8.596;2022-12-16T01:30:20;-2.60;99.90
21662;DHT22;10992;48.170;8.596;2022-12-16T01:32:47;-2.50;99.90
21662;DHT22;10992;48.170;8.596;2022-12-16T01:35:14;-2.60;99.90
21662;DHT22;10992;48.170;8.596;2022-12-16T01:38:01;-2.60;99.90
21662;DHT22;10992;48.170;8.596;2022-12-16T01:40:31;-2.60;99.90
21662;DHT22;10992;48.170;8.596;2022-12-16T01:42:58;-2.70;99.90
21662;DHT22;10992;48.170;8.596;2022-12-16T01:45:34;-2.60;99.90
21662;DHT22;10992;48.170;8.596;2022-12-16T01:50:53;-2.60;99.90
21662;DHT22;10992;48.170;8.596;2022-12-16T01:53:22;-2.60;99.90
21662;DHT22;10992;48.170;8.596;2022-12-16T01:55:51;-2.60;99.90
21662;DHT22;10992;48.170;8.596;2022-12-16T01:58:25;-2.60;99.90
21662;DHT22;10992;48.170;8.596;2022-12-16T02:00:52;-2.60;99.90
21662;DHT22;10992;48.170;8.596;2022-12-16T02:03:21;-2.60;99.90
21662;DHT22;10992;48.170;8.596;2022-12-16T02:05:48;-2.70;99.90
21662;DHT22;10992;48.170;8.596;2022-12-16T02:08:17;-2.80;99.90
21662;DHT22;10992;48.170;8.596;2022-12-16T02:11:03;-2.80;99.90
21662;DHT22;10992;48.170;8.596;2022-12-16T02:13:47;-2.90;99.90
21662;DHT22;10992;48.170;8.596;2022-12-16T02:36:48;-3.10;99.90
21662;DHT22;10992;48.170;8.596;2022-12-16T02:39:36;-3.00;99.90
21662;DHT22;10992;48.170;8.596;2022-12-16T02:47:38;-2.90;99.90
21662;DHT22;10992;48.170;8.596;2022-12-16T02:50:17;-3.00;99.90
21662;DHT22;10992;48.170;8.596;2022-12-16T02:52:46;-3.10;99.90
21662;DHT22;10992;48.170;8.596;2022-12-16T02:55:12;-3.00;99.90
21662;DHT22;10992;48.170;8.596;2022-12-16T03:00:30;-3.10;99.90
21662;DHT22;10992;48.170;8.596;2022-12-16T03:03:15;-3.10;99.90
21662;DHT22;10992;48.170;8.596;2022-12-16T03:05:46;-3.00;99.90
21662;DHT22;10992;48.170;8.596;2022-12-16T03:08:27;-3.10;99.90
21662;DHT22;10992;48.170;8.596;2022-12-16T03:11:03;-3.10;99.90
21662;DHT22;10992;48.170;8.596;2022-12-16T03:13:47;-3.00;99.90
21662;DHT22;10992;48.170;8.596;2022-12-16T03:16:18;-3.00;99.90
21662;DHT22;10992;48.170;8.596;2022-12-16T03:18:50;-3.10;99.90
21662;DHT22;10992;48.170;8.596;2022-12-16T03:21:22;-3.10;99.90
21662;DHT22;10992;48.170;8.596;2022-12-16T03:23:56;-3.10;99.90
21662;DHT22;10992;48.170;8.596;2022-12-16T03:29:15;-3.10;99.90
21662;DHT22;10992;48.170;8.596;2022-12-16T03:36:55;-3.10;99.90
21662;DHT22;10992;48.170;8.596;2022-12-16T03:39:24;-3.20;99.90
21662;DHT22;10992;48.170;8.596;2022-12-16T03:41:53;-3.10;99.90
21662;DHT22;10992;48.170;8.596;2022-12-16T03:44:23;-3.20;99.90
21662;DHT22;10992;48.170;8.596;2022-12-16T03:46:51;-3.20;99.90
21662;DHT22;10992;48.170;8.596;2022-12-16T03:49:18;-3.20;99.90
21662;DHT22;10992;48.170;8.596;2022-12-16T03:51:45;-3.10;99.90
21662;DHT22;10992;48.170;8.596;2022-12-16T03:54:11;-3.20;99.90
21662;DHT22;10992;48.170;8.596;2022-12-16T03:56:38;-3.20;99.90
21662;DHT22;10992;48.170;8.596;2022-12-16T03:59:05;-3.20;99.90
21662;DHT22;10992;48.170;8.596;2022-12-16T04:01:32;-3.30;99.90
21662;DHT22;10992;48.170;8.596;2022-12-16T04:04:00;-3.30;99.90
21662;DHT22;10992;48.170;8.596;2022-12-16T04:06:27;-3.20;99.90
21662;DHT22;10992;48.170;8.596;2022-12-16T04:08:54;-3.20;99.90
21662;DHT22;10992;48.170;8.596;2022-12-16T04:11:21;-3.20;99.90
21662;DHT22;10992;48.170;8.596;2022-12-16T04:14:07;-3.20;99.90
21662;DHT22;10992;48.170;8.596;2022-12-16T04:16:58;-3.10;99.90
21662;DHT22;10992;48.170;8.596;2022-12-16T04:19:45;-3.10;99.90
21662;DHT22;10992;48.170;8.596;2022-12-16T04:22:34;-3.10;99.90
21662;DHT22;10992;48.170;8.596;2022-12-16T04:25:23;-3.10;99.90
21662;DHT22;10992;48.170;8.596;2022-12-16T04:27:51;-3.20;99.90
21662;DHT22;10992;48.170;8.596;2022-12-16T04:30:19;-3.20;99.90
21662;DHT22;10992;48.170;8.596;2022-12-16T04:32:52;-3.10;99.90
21662;DHT22;10992;48.170;8.596;2022-12-16T04:35:38;-3.10;99.90
21662;DHT22;10992;48.170;8.596;2022-12-16T04:38:24;-3.10;99.90
21662;DHT22;10992;48.170;8.596;2022-12-16T04:41:09;-3.10;99.90
21662;DHT22;10992;48.170;8.596;2022-12-16T04:43:55;-3.20;99.90
21662;DHT22;10992;48.170;8.596;2022-12-16T04:46:40;-3.20;99.90
21662;DHT22;10992;48.170;8.596;2022-12-16T04:49:26;-3.20;99.90
21662;DHT22;10992;48.170;8.596;2022-12-16T04:52:12;-3.20;99.90
21662;DHT22;10992;48.170;8.596;2022-12-16T04:54:57;-3.10;99.90
21662;DHT22;10992;48.170;8.596;2022-12-16T04:57:47;-3.20;99.90
21662;DHT22;10992;48.170;8.596;2022-12-16T05:00:33;-3.10;99.90
21662;DHT22;10992;48.170;8.596;2022-12-16T05:03:21;-3.20;99.90
21662;DHT22;10992;48.170;8.596;2022-12-16T05:06:07;-3.20;99.90
21662;DHT22;10992;48.170;8.596;2022-12-16T05:08:52;-3.20;99.90
21662;DHT22;10992;48.170;8.596;2022-12-16T05:11:38;-3.30;99.90
21662;DHT22;10992;48.170;8.596;2022-12-16T05:14:23;-3.30;99.90
21662;DHT22;10992;48.170;8.596;2022-12-16T05:17:09;-3.30;99.90
21662;DHT22;10992;48.170;8.596;2022-12-16T05:19:54;-3.40;99.90
21662;DHT22;10992;48.170;8.596;2022-12-16T05:22:40;-3.30;99.90
21662;DHT22;10992;48.170;8.596;2022-12-16T05:25:26;-3.50;99.90
21662;DHT22;10992;48.170;8.596;2022-12-16T05:28:12;-3.40;99.90
21662;DHT22;10992;48.170;8.596;2022-12-16T05:30:57;-3.40;99.90
21662;DHT22;10992;48.170;8.596;2022-12-16T05:33:43;-3.50;99.90
21662;DHT22;10992;48.170;8.596;2022-12-16T05:36:29;-3.40;99.90
21662;DHT22;10992;48.170;8.596;2022-12-16T05:39:14;-3.40;99.90
21662;DHT22;10992;48.170;8.596;2022-12-16T05:42:00;-3.50;99.90
21662;DHT22;10992;48.170;8.596;2022-12-16T05:44:45;-3.50;99.90
21662;DHT22;10992;48.170;8.596;2022-12-16T05:47:31;-3.50;99.90
21662;DHT22;10992;48.170;8.596;2022-12-16T05:50:17;-3.50;99.90
21662;DHT22;10992;48.170;8.596;2022-12-16T05:53:09;-3.50;99.90
21662;DHT22;10992;48.170;8.596;2022-12-16T05:55:55;-3.70;99.90
21662;DHT22;10992;48.170;8.596;2022-12-16T05:58:42;-3.70;99.90
21662;DHT22;10992;48.170;8.596;2022-12-16T06:01:28;-3.60;99.90
21662;DHT22;10992;48.170;8.596;2022-12-16T06:04:14;-3.50;99.90
21662;DHT22;10992;48.170;8.596;2022-12-16T06:06:59;-3.60;99.90
21662;DHT22;10992;48.170;8.596;2022-12-16T06:09:44;-3.50;99.90
21662;DHT22;10992;48.170;8.596;2022-12-16T06:12:30;-3.50;99.90
21662;DHT22;10992;48.170;8.596;2022-12-16T06:15:15;-3.50;99.90
21662;DHT22;10992;48.170;8.596;2022-12-16T06:18:01;-3.40;99.90
21662;DHT22;10992;48.170;8.596;2022-12-16T06:20:47;-3.40;99.90
21662;DHT22;10992;48.170;8.596;2022-12-16T06:23:33;-3.40;99.90
21662;DHT22;10992;48.170;8.596;2022-12-16T06:26:18;-3.40;99.90
21662;DHT22;10992;48.170;8.596;2022-12-16T06:29:04;-3.40;99.90
21662;DHT22;10992;48.170;8.596;2022-12-16T06:31:49;-3.40;99.90
21662;DHT22;10992;48.170;8.596;2022-12-16T06:34:35;-3.40;99.90
21662;DHT22;10992;48.170;8.596;2022-12-16T06:37:20;-3.40;99.90
21662;DHT22;10992;48.170;8.596;2022-12-16T06:40:06;-3.40;99.90
21662;DHT22;10992;48.170;8.596;2022-12-16T06:42:52;-3.50;99.90
21662;DHT22;10992;48.170;8.596;2022-12-16T06:45:37;-3.40;99.90
21662;DHT22;10992;48.170;8.596;2022-12-16T06:48:23;-3.40;99.90
21662;DHT22;10992;48.170;8.596;2022-12-16T06:51:08;-3.50;99.90
21662;DHT22;10992;48.170;8.596;2022-12-16T06:53:54;-3.50;99.90
21662;DHT22;10992;48.170;8.596;2022-12-16T06:56:40;-3.60;99.90
21662;DHT22;10992;48.170;8.596;2022-12-16T06:59:25;-3.60;99.90
21662;DHT22;10992;48.170;8.596;2022-12-16T07:02:11;-3.60;99.90
21662;DHT22;10992;48.170;8.596;2022-12-16T07:04:57;-3.40;99.90
21662;DHT22;10992;48.170;8.596;2022-12-16T07:07:49;-3.40;99.90
21662;DHT22;10992;48.170;8.596;2022-12-16T07:10:36;-3.40;99.90
21662;DHT22;10992;48.170;8.596;2022-12-16T07:13:34;-3.30;99.90
21662;DHT22;10992;48.170;8.596;2022-12-16T07:16:20;-3.30;99.90
21662;DHT22;10992;48.170;8.596;2022-12-16T07:19:06;-3.40;99.90
21662;DHT22;10992;48.170;8.596;2022-12-16T07:21:51;-3.40;99.90
21662;DHT22;10992;48.170;8.596;2022-12-16T07:24:37;-3.40;99.90
21662;DHT22;10992;48.170;8.596;2022-12-16T07:27:23;-3.30;99.90
21662;DHT22;10992;48.170;8.596;2022-12-16T07:30:09;-3.30;99.90
21662;DHT22;10992;48.170;8.596;2022-12-16T07:32:54;-3.30;99.90
21662;DHT22;10992;48.170;8.596;2022-12-16T07:35:42;-3.30;99.90
21662;DHT22;10992;48.170;8.596;2022-12-16T07:38:27;-3.20;99.90
21662;DHT22;10992;48.170;8.596;2022-12-16T07:41:13;-3.20;99.90
21662;DHT22;10992;48.170;8.596;2022-12-16T07:43:58;-3.20;99.90
21662;DHT22;10992;48.170;8.596;2022-12-16T07:46:44;-3.30;99.90
21662;DHT22;10992;48.170;8.596;2022-12-16T07:49:46;-3.30;99.90
21662;DHT22;10992;48.170;8.596;2022-12-16T07:52:32;-3.40;99.90
21662;DHT22;10992;48.170;8.596;2022-12-16T07:55:20;-3.40;99.90
21662;DHT22;10992;48.170;8.596;2022-12-16T07:58:06;-3.30;99.90
21662;DHT22;10992;48.170;8.596;2022-12-16T08:00:52;-3.30;99.90
21662;DHT22;10992;48.170;8.596;2022-12-16T08:03:37;-3.30;99.90
21662;DHT22;10992;48.170;8.596;2022-12-16T08:06:23;-3.30;99.90
21662;DHT22;10992;48.170;8.596;2022-12-16T08:09:10;-3.30;99.90
21662;DHT22;10992;48.170;8.596;2022-12-16T08:11:56;-3.30;99.90
21662;DHT22;10992;48.170;8.596;2022-12-16T08:14:41;-3.20;99.90
21662;DHT22;10992;48.170;8.596;2022-12-16T08:17:31;-3.20;99.90
21662;DHT22;10992;48.170;8.596;2022-12-16T08:20:18;-3.10;99.90
21662;DHT22;10992;48.170;8.596;2022-12-16T08:23:03;-3.10;99.90
21662;DHT22;10992;48.170;8.596;2022-12-16T08:25:49;-3.10;99.90
21662;DHT22;10992;48.170;8.596;2022-12-16T08:28:45;-3.00;99.90
21662;DHT22;10992;48.170;8.596;2022-12-16T08:31:51;-3.00;99.90
21662;DHT22;10992;48.170;8.596;2022-12-16T08:34:36;-2.90;99.90
21662;DHT22;10992;48.170;8.596;2022-12-16T08:37:22;-3.00;99.90
21662;DHT22;10992;48.170;8.596;2022-12-16T08:40:07;-3.00;99.90
21662;DHT22;10992;48.170;8.596;2022-12-16T08:43:01;-3.00;99.90
21662;DHT22;10992;48.170;8.596;2022-12-16T08:45:46;-3.00;99.90
21662;DHT22;10992;48.170;8.596;2022-12-16T08:48:32;-3.00;99.90
21662;DHT22;10992;48.170;8.596;2022-12-16T08:51:17;-3.00;99.90
21662;DHT22;10992;48.170;8.596;2022-12-16T08:54:03;-3.00;99.90
21662;DHT22;10992;48.170;8.596;2022-12-16T08:56:48;-2.90;99.90
21662;DHT22;10992;48.170;8.596;2022-12-16T08:59:34;-3.10;99.90
21662;DHT22;10992;48.170;8.596;2022-12-16T09:02:20;-3.30;99.90
21662;DHT22;10992;48.170;8.596;2022-12-16T09:05:07;-3.40;99.90
21662;DHT22;10992;48.170;8.596;2022-12-16T09:07:59;-3.20;99.90
21662;DHT22;10992;48.170;8.596;2022-12-16T09:10:44;-3.20;99.90
21662;DHT22;10992;48.170;8.596;2022-12-16T09:13:30;-3.10;99.90
21662;DHT22;10992;48.170;8.596;2022-12-16T09:16:15;-3.00;99.90
21662;DHT22;10992;48.170;8.596;2022-12-16T09:19:01;-3.00;99.90
21662;DHT22;10992;48.170;8.596;2022-12-16T09:21:46;-3.00;99.90
21662;DHT22;10992;48.170;8.596;2022-12-16T09:24:32;-3.10;99.90
21662;DHT22;10992;48.170;8.596;2022-12-16T09:27:18;-3.20;99.90
21662;DHT22;10992;48.170;8.596;2022-12-16T09:30:04;-3.10;99.90
21662;DHT22;10992;48.170;8.596;2022-12-16T09:32:50;-3.10;99.90
21662;DHT22;10992;48.170;8.596;2022-12-16T09:35:35;-3.00;99.90
21662;DHT22;10992;48.170;8.596;2022-12-16T09:38:21;-3.00;99.90
21662;DHT22;10992;48.170;8.596;2022-12-16T09:44:19;-2.90;99.90
21662;DHT22;10992;48.170;8.596;2022-12-16T09:47:16;-2.90;99.90
21662;DHT22;10992;48.170;8.596;2022-12-16T09:50:22;-2.90;99.90
21662;DHT22;10992;48.170;8.596;2022-12-16T09:53:18;-2.80;99.90
21662;DHT22;10992;48.170;8.596;2022-12-16T09:56:11;-2.70;99.90
21662;DHT22;10992;48.170;8.596;2022-12-16T09:59:00;-2.70;99.90
21662;DHT22;10992;48.170;8.596;2022-12-16T10:01:47;-2.80;99.90
21662;DHT22;10992;48.170;8.596;2022-12-16T10:04:34;-2.70;99.90
21662;DHT22;10992;48.170;8.596;2022-12-16T10:07:22;-2.50;99.90
21662;DHT22;10992;48.170;8.596;2022-12-16T10:10:31;-2.20;99.90
21662;DHT22;10992;48.170;8.596;2022-12-16T10:17:09;-1.50;99.90
21662;DHT22;10992;48.170;8.596;2022-12-16T10:23:52;-1.40;99.90
21662;DHT22;10992;48.170;8.596;2022-12-16T10:27:12;-1.70;99.90
21662;DHT22;10992;48.170;8.596;2022-12-16T10:32:47;-1.60;99.90
21662;DHT22;10992;48.170;8.596;2022-12-16T10:35:36;-1.80;99.90
21662;DHT22;10992;48.170;8.596;2022-12-16T10:41:52;-1.60;99.90
21662;DHT22;10992;48.170;8.596;2022-12-16T10:47:36;-1.70;99.90
21662;DHT22;10992;48.170;8.596;2022-12-16T10:50:22;-1.70;99.90
21662;DHT22;10992;48.170;8.596;2022-12-16T10:53:34;-1.70;99.90
21662;DHT22;10992;48.170;8.596;2022-12-16T10:59:23;-2.00;99.90
21662;DHT22;10992;48.170;8.596;2022-12-16T11:02:20;-1.90;99.90
21662;DHT22;10992;48.170;8.596;2022-12-16T11:05:31;-1.80;99.90
21662;DHT22;10992;48.170;8.596;2022-12-16T11:08:33;-1.70;99.90
21662;DHT22;10992;48.170;8.596;2022-12-16T11:11:28;-1.50;99.90
21662;DHT22;10992;48.170;8.596;2022-12-16T11:14:29;-1.60;99.90
21662;DHT22;10992;48.170;8.596;2022-12-16T11:17:35;-1.40;99.90
21662;DHT22;10992;48.170;8.596;2022-12-16T11:20:24;-1.30;99.90
21662;DHT22;10992;48.170;8.596;2022-12-16T11:26:08;-0.90;99.90
21662;DHT22;10992;48.170;8.596;2022-12-16T11:29:16;-0.90;99.90
21662;DHT22;10992;48.170;8.596;2022-12-16T11:34:54;-0.90;99.90
21662;DHT22;10992;48.170;8.596;2022-12-16T11:37:41;-0.90;99.90
21662;DHT22;10992;48.170;8.596;2022-12-16T11:40:29;-0.90;99.90
21662;DHT22;10992;48.170;8.596;2022-12-16T11:43:17;-0.80;99.90
21662;DHT22;10992;48.170;8.596;2022-12-16T11:46:09;-0.90;99.90
21662;DHT22;10992;48.170;8.596;2022-12-16T11:49:00;-0.90;99.90
21662;DHT22;10992;48.170;8.596;2022-12-16T11:51:55;-1.00;99.90
21662;DHT22;10992;48.170;8.596;2022-12-16T11:55:06;-1.10;99.90
21662;DHT22;10992;48.170;8.596;2022-12-16T11:58:25;-1.10;99.90
21662;DHT22;10992;48.170;8.596;2022-12-16T12:01:33;-1.00;99.90
21662;DHT22;10992;48.170;8.596;2022-12-16T12:04:21;-0.90;99.90
21662;DHT22;10992;48.170;8.596;2022-12-16T12:13:55;-1.00;99.90
21662;DHT22;10992;48.170;8.596;2022-12-16T12:16:50;-1.00;99.90
21662;DHT22;10992;48.170;8.596;2022-12-16T12:20:25;-0.90;99.90
21662;DHT22;10992;48.170;8.596;2022-12-16T12:23:17;-1.00;99.90
21662;DHT22;10992;48.170;8.596;2022-12-16T12:26:12;-1.10;99.90
21662;DHT22;10992;48.170;8.596;2022-12-16T12:38:01;-0.90;99.90
21662;DHT22;10992;48.170;8.596;2022-12-16T12:41:17;-1.00;99.90
21662;DHT22;10992;48.170;8.596;2022-12-16T12:47:15;-1.10;99.90
21662;DHT22;10992;48.170;8.596;2022-12-16T12:50:06;-1.00;99.90
21662;DHT22;10992;48.170;8.596;2022-12-16T12:52:56;-0.90;99.90
21662;DHT22;10992;48.170;8.596;2022-12-16T12:58:50;-0.90;99.90
21662;DHT22;10992;48.170;8.596;2022-12-16T13:01:39;-1.00;99.90
21662;DHT22;10992;48.170;8.596;2022-12-16T13:04:28;-1.00;99.90
21662;DHT22;10992;48.170;8.596;2022-12-16T13:07:14;-1.10;99.90
21662;DHT22;10992;48.170;8.596;2022-12-16T13:16:01;-1.20;99.90
21662;DHT22;10992;48.170;8.596;2022-12-16T13:18:47;-1.30;99.90
21662;DHT22;10992;48.170;8.596;2022-12-16T13:27:12;-1.20;99.90
21662;DHT22;10992;48.170;8.596;2022-12-16T13:30:20;-1.20;99.90
21662;DHT22;10992;48.170;8.596;2022-12-16T13:33:20;-1.30;99.90
21662;DHT22;10992;48.170;8.596;2022-12-16T13:36:07;-1.30;99.90
21662;DHT22;10992;48.170;8.596;2022-12-16T13:38:55;-1.30;99.90
21662;DHT22;10992;48.170;8.596;2022-12-16T13:50:44;-1.10;99.90
21662;DHT22;10992;48.170;8.596;2022-12-16T13:53:38;-1.10;99.90
21662;DHT22;10992;48.170;8.596;2022-12-16T13:56:33;-1.20;99.90
21662;DHT22;10992;48.170;8.596;2022-12-16T13:59:21;-1.20;99.90
21662;DHT22;10992;48.170;8.596;2022-12-16T14:05:26;-1.10;99.90
21662;DHT22;10992;48.170;8.596;2022-12-16T14:08:17;-1.10;99.90
21662;DHT22;10992;48.170;8.596;2022-12-16T14:11:06;-1.30;99.90
21662;DHT22;10992;48.170;8.596;2022-12-16T14:14:05;-1.50;99.90
21662;DHT22;10992;48.170;8.596;2022-12-16T14:16:59;-1.70;99.90
21662;DHT22;10992;48.170;8.596;2022-12-16T14:26:22;-1.70;99.90
21662;DHT22;10992;48.170;8.596;2022-12-16T14:29:30;-1.70;99.90
21662;DHT22;10992;48.170;8.596;2022-12-16T14:32:28;-1.70;99.90
21662;DHT22;10992;48.170;8.596;2022-12-16T14:35:26;-1.90;99.90
21662;DHT22;10992;48.170;8.596;2022-12-16T14:38:27;-2.00;99.90
21662;DHT22;10992;48.170;8.596;2022-12-16T14:41:18;-2.10;99.90
21662;DHT22;10992;48.170;8.596;2022-12-16T14:44:24;-2.20;99.90
21662;DHT22;10992;48.170;8.596;2022-12-16T14:47:18;-2.40;99.90
21662;DHT22;10992;48.170;8.596;2022-12-16T14:50:27;-2.40;99.90
21662;DHT22;10992;48.170;8.596;2022-12-16T14:53:18;-2.40;99.90
21662;DHT22;10992;48.170;8.596;2022-12-16T14:56:21;-2.50;99.90
21662;DHT22;10992;48.170;8.596;2022-12-16T14:59:15;-2.50;99.90
21662;DHT22;10992;48.170;8.596;2022-12-16T15:02:28;-2.50;99.90
21662;DHT22;10992;48.170;8.596;2022-12-16T15:05:15;-2.60;99.90
21662;DHT22;10992;48.170;8.596;2022-12-16T15:08:01;-2.50;99.90
21662;DHT22;10992;48.170;8.596;2022-12-16T15:10:46;-2.50;99.90
21662;DHT22;10992;48.170;8.596;2022-12-16T15:13:33;-2.50;99.90
21662;DHT22;10992;48.170;8.596;2022-12-16T15:16:30;-2.50;99.90
21662;DHT22;10992;48.170;8.596;2022-12-16T15:19:20;-2.60;99.90
21662;DHT22;10992;48.170;8.596;2022-12-16T15:22:15;-2.70;99.90
21662;DHT22;10992;48.170;8.596;2022-12-16T15:25:02;-2.70;99.90
21662;DHT22;10992;48.170;8.596;2022-12-16T15:27:55;-2.70;99.90
21662;DHT22;10992;48.170;8.596;2022-12-16T15:30:42;-2.80;99.90
21662;DHT22;10992;48.170;8.596;2022-12-16T15:33:32;-2.80;99.90
21662;DHT22;10992;48.170;8.596;2022-12-16T15:36:24;-2.80;99.90
21662;DHT22;10992;48.170;8.596;2022-12-16T15:39:21;-2.90;99.90
21662;DHT22;10992;48.170;8.596;2022-12-16T15:42:29;-2.80;99.90
21662;DHT22;10992;48.170;8.596;2022-12-16T15:48:31;-2.90;99.90
21662;DHT22;10992;48.170;8.596;2022-12-16T15:54:17;-2.80;99.90
21662;DHT22;10992;48.170;8.596;2022-12-16T16:03:03;-2.90;99.90
21662;DHT22;10992;48.170;8.596;2022-12-16T16:05:49;-2.90;99.90
21662;DHT22;10992;48.170;8.596;2022-12-16T16:08:35;-3.00;99.90
21662;DHT22;10992;48.170;8.596;2022-12-16T16:11:20;-3.00;99.90
21662;DHT22;10992;48.170;8.596;2022-12-16T16:14:05;-3.00;99.90
21662;DHT22;10992;48.170;8.596;2022-12-16T16:16:51;-3.00;99.90
21662;DHT22;10992;48.170;8.596;2022-12-16T16:19:36;-3.10;99.90
21662;DHT22;10992;48.170;8.596;2022-12-16T16:22:29;-3.10;99.90
21662;DHT22;10992;48.170;8.596;2022-12-16T16:25:14;-3.10;99.90
21662;DHT22;10992;48.170;8.596;2022-12-16T16:28:00;-3.20;99.90
21662;DHT22;10992;48.170;8.596;2022-12-16T16:30:45;-3.40;99.90
21662;DHT22;10992;48.170;8.596;2022-12-16T16:33:31;-3.30;99.90
21662;DHT22;10992;48.170;8.596;2022-12-16T16:36:16;-3.30;99.90
21662;DHT22;10992;48.170;8.596;2022-12-16T16:39:02;-3.20;99.90
21662;DHT22;10992;48.170;8.596;2022-12-16T16:41:48;-3.30;99.90
21662;DHT22;10992;48.170;8.596;2022-12-16T16:44:33;-3.40;99.90
21662;DHT22;10992;48.170;8.596;2022-12-16T16:47:19;-3.50;99.90
21662;DHT22;10992;48.170;8.596;2022-12-16T16:50:05;-3.40;99.90
21662;DHT22;10992;48.170;8.596;2022-12-16T16:52:51;-3.50;99.90
21662;DHT22;10992;48.170;8.596;2022-12-16T16:55:36;-3.30;99.90
21662;DHT22;10992;48.170;8.596;2022-12-16T16:58:25;-3.30;99.90
21662;DHT22;10992;48.170;8.596;2022-12-16T17:01:13;-3.30;99.90
21662;DHT22;10992;48.170;8.596;2022-12-16T17:03:59;-3.30;99.90
21662;DHT22;10992;48.170;8.596;2022-12-16T17:06:45;-3.30;99.90
21662;DHT22;10992;48.170;8.596;2022-12-16T17:09:30;-3.40;99.90
21662;DHT22;10992;48.170;8.596;2022-12-16T17:12:21;-3.30;99.90
21662;DHT22;10992;48.170;8.596;2022-12-16T17:15:31;-3.50;99.90
21662;DHT22;10992;48.170;8.596;2022-12-16T17:18:19;-3.40;99.90
21662;DHT22;10992;48.170;8.596;2022-12-16T17:21:12;-3.40;99.90
21662;DHT22;10992;48.170;8.596;2022-12-16T17:23:58;-3.50;99.90
21662;DHT22;10992;48.170;8.596;2022-12-16T17:26:47;-3.40;99.90
21662;DHT22;10992;48.170;8.596;2022-12-16T17:29:32;-3.40;99.90
21662;DHT22;10992;48.170;8.596;2022-12-16T17:32:17;-3.40;99.90
21662;DHT22;10992;48.170;8.596;2022-12-16T17:35:03;-3.40;99.90
21662;DHT22;10992;48.170;8.596;2022-12-16T17:37:50;-3.40;99.90
21662;DHT22;10992;48.170;8.596;2022-12-16T17:40:35;-3.40;99.90
21662;DHT22;10992;48.170;8.596;2022-12-16T17:43:20;-3.50;99.90
21662;DHT22;10992;48.170;8.596;2022-12-16T17:46:08;-3.50;99.90
21662;DHT22;10992;48.170;8.596;2022-12-16T17:48:56;-3.50;99.90
21662;DHT22;10992;48.170;8.596;2022-12-16T17:51:42;-3.60;99.90
21662;DHT22;10992;48.170;8.596;2022-12-16T17:54:28;-3.60;99.90
21662;DHT22;10992;48.170;8.596;2022-12-16T17:57:13;-3.60;99.90
21662;DHT22;10992;48.170;8.596;2022-12-16T17:59:59;-3.70;99.90
21662;DHT22;10992;48.170;8.596;2022-12-16T18:02:45;-3.70;99.90
21662;DHT22;10992;48.170;8.596;2022-12-16T18:05:31;-3.70;99.90
21662;DHT22;10992;48.170;8.596;2022-12-16T18:08:17;-3.70;99.90
21662;DHT22;10992;48.170;8.596;2022-12-16T18:11:02;-3.90;99.90
21662;DHT22;10992;48.170;8.596;2022-12-16T18:13:48;-3.90;99.90
21662;DHT22;10992;48.170;8.596;2022-12-16T18:16:33;-4.00;99.90
21662;DHT22;10992;48.170;8.596;2022-12-16T18:19:19;-4.20;99.90
21662;DHT22;10992;48.170;8.596;2022-12-16T18:22:04;-4.30;99.90
21662;DHT22;10992;48.170;8.596;2022-12-16T18:24:49;-4.30;99.90
21662;DHT22;10992;48.170;8.596;2022-12-16T18:27:35;-4.40;99.90
21662;DHT22;10992;48.170;8.596;2022-12-16T18:30:21;-4.40;99.90
21662;DHT22;10992;48.170;8.596;2022-12-16T18:33:06;-4.30;99.90
21662;DHT22;10992;48.170;8.596;2022-12-16T18:35:52;-4.30;99.90
21662;DHT22;10992;48.170;8.596;2022-12-16T18:38:39;-4.20;99.90
21662;DHT22;10992;48.170;8.596;2022-12-16T18:41:24;-4.10;99.90
21662;DHT22;10992;48.170;8.596;2022-12-16T18:44:11;-4.10;99.90
21662;DHT22;10992;48.170;8.596;2022-12-16T18:46:57;-4.10;99.90
21662;DHT22;10992;48.170;8.596;2022-12-16T18:49:43;-4.10;99.90
21662;DHT22;10992;48.170;8.596;2022-12-16T18:52:28;-4.10;99.90
21662;DHT22;10992;48.170;8.596;2022-12-16T18:55:14;-4.10;99.90
21662;DHT22;10992;48.170;8.596;2022-12-16T18:57:59;-4.20;99.90
21662;DHT22;10992;48.170;8.596;2022-12-16T19:01:07;-4.20;99.90
21662;DHT22;10992;48.170;8.596;2022-12-16T19:03:54;-4.30;99.90
21662;DHT22;10992;48.170;8.596;2022-12-16T19:06:40;-4.30;99.90
21662;DHT22;10992;48.170;8.596;2022-12-16T19:09:26;-4.30;99.90
21662;DHT22;10992;48.170;8.596;2022-12-16T19:12:11;-4.40;99.90
21662;DHT22;10992;48.170;8.596;2022-12-16T19:14:57;-4.50;99.90
21662;DHT22;10992;48.170;8.596;2022-12-16T19:17:42;-4.50;99.90
21662;DHT22;10992;48.170;8.596;2022-12-16T19:20:28;-4.50;99.90
21662;DHT22;10992;48.170;8.596;2022-12-16T19:23:14;-4.50;99.90
21662;DHT22;10992;48.170;8.596;2022-12-16T19:26:00;-4.40;99.90
21662;DHT22;10992;48.170;8.596;2022-12-16T19:28:46;-4.40;99.90
21662;DHT22;10992;48.170;8.596;2022-12-16T19:31:31;-4.40;99.90
21662;DHT22;10992;48.170;8.596;2022-12-16T19:34:17;-4.50;99.90